createdAt,value
2019-02-02T00:01:17.806Z,41.42
2019-02-02T00:03:45.559Z,42.13
2019-02-02T00:06:13.204Z,48.10
2019-02-02T00:08:40.918Z,44.33
2019-02-02T00:11:08.549Z,43.10
2019-02-02T00:13:36.192Z,44.33
2019-02-02T00:16:04.627Z,40.55
2019-02-02T00:18:32.296Z,45.35
2019-02-02T00:20:59.992Z,42.70
2019-02-02T00:23:27.716Z,47.60
2019-02-02T00:25:55.395Z,46.25
2019-02-02T00:28:23.015Z,47.58
2019-02-02T00:30:50.824Z,43.78
2019-02-02T00:33:18.480Z,44.80
2019-02-02T00:35:46.166Z,46.70
2019-02-02T00:38:13.882Z,49.60
2019-02-02T00:40:41.562Z,46.02
2019-02-02T00:43:09.263Z,50.28
2019-02-02T00:45:37.234Z,45.67
2019-02-02T00:48:05.086Z,49.42
2019-02-02T00:50:32.724Z,47.50
2019-02-02T00:53:01.215Z,48.98
2019-02-02T00:55:28.991Z,49.75
2019-02-02T00:57:56.642Z,50.45
2019-02-02T01:00:24.524Z,48.13
2019-02-02T01:02:52.306Z,47.90
2019-02-02T01:05:20.181Z,45.52
2019-02-02T01:07:48.016Z,42.55
2019-02-02T01:10:24.080Z,50.00
2019-02-02T01:12:51.752Z,46.83
2019-02-02T01:15:19.525Z,52.03
2019-02-02T01:17:47.240Z,53.65
2019-02-02T01:20:15.223Z,51.58
2019-02-02T01:22:43.114Z,49.20
2019-02-02T01:25:11.031Z,49.15
2019-02-02T01:27:38.736Z,48.33
2019-02-02T01:30:08.157Z,54.70
2019-02-02T01:32:35.838Z,47.85
2019-02-02T01:35:04.597Z,49.08
2019-02-02T01:37:32.273Z,51.00
2019-02-02T01:39:59.879Z,51.53
2019-02-02T01:42:27.548Z,52.53
2019-02-02T01:44:55.276Z,50.10
2019-02-02T01:47:22.924Z,49.80
2019-02-02T01:49:50.539Z,49.10
2019-02-02T01:52:18.196Z,50.48
2019-02-02T01:54:45.892Z,47.35
2019-02-02T01:57:13.511Z,51.15
2019-02-02T01:59:41.199Z,48.02
2019-02-02T02:02:08.846Z,51.95
2019-02-02T02:04:36.494Z,46.88
2019-02-02T02:07:04.281Z,49.42
2019-02-02T02:09:31.983Z,47.95
2019-02-02T02:11:59.639Z,49.45
2019-02-02T02:14:27.319Z,51.98
2019-02-02T02:16:54.971Z,47.10
2019-02-02T02:19:22.594Z,48.30
2019-02-02T02:21:50.306Z,43.78
2019-02-02T02:24:17.979Z,49.60
2019-02-02T02:26:45.735Z,50.50
2019-02-02T02:29:13.418Z,48.75
2019-02-02T02:31:41.155Z,52.05
2019-02-02T02:34:08.792Z,53.58
2019-02-02T02:36:36.612Z,52.95
2019-02-02T02:39:07.370Z,50.35
2019-02-02T02:41:34.995Z,53.17
2019-02-02T02:44:02.753Z,49.25
2019-02-02T02:46:30.404Z,47.43
2019-02-02T02:48:58.052Z,49.77
2019-02-02T02:51:25.717Z,47.58
2019-02-02T02:53:53.375Z,45.67
2019-02-02T02:56:21.036Z,51.13
2019-02-02T02:58:48.703Z,48.13
2019-02-02T03:01:16.408Z,47.35
2019-02-02T03:03:44.040Z,54.05
2019-02-02T03:06:11.730Z,48.98
2019-02-02T03:08:39.391Z,47.83
2019-02-02T03:11:07.067Z,46.70
2019-02-02T03:13:34.751Z,49.95
2019-02-02T03:16:02.437Z,53.05
2019-02-02T03:18:30.075Z,51.68
2019-02-02T03:20:57.676Z,51.10
2019-02-02T03:23:25.437Z,54.40
2019-02-02T03:25:53.062Z,49.77
2019-02-02T03:28:20.726Z,54.20
2019-02-02T03:30:48.509Z,52.05
2019-02-02T03:33:16.160Z,46.95
2019-02-02T03:35:43.852Z,51.80
2019-02-02T03:38:11.563Z,49.67
2019-02-02T03:40:39.224Z,49.48
2019-02-02T03:43:06.892Z,47.43
2019-02-02T03:45:34.515Z,52.30
2019-02-02T03:48:02.148Z,50.88
2019-02-02T03:50:29.830Z,51.98
2019-02-02T03:52:57.480Z,49.42
2019-02-02T03:55:25.188Z,51.50
2019-02-02T03:57:52.780Z,52.53
2019-02-02T04:00:21.000Z,49.48
2019-02-02T04:02:48.942Z,49.88
2019-02-02T04:05:21.792Z,49.35
2019-02-02T04:07:49.427Z,52.62
2019-02-02T04:10:17.276Z,50.92
2019-02-02T04:12:44.937Z,49.03
2019-02-02T04:15:13.211Z,52.40
2019-02-02T04:17:40.857Z,57.70
2019-02-02T04:20:11.888Z,49.00
2019-02-02T04:22:39.504Z,55.05
2019-02-02T04:25:07.631Z,50.98
2019-02-02T04:27:35.254Z,56.18
2019-02-02T04:30:03.653Z,54.60
2019-02-02T04:32:31.339Z,55.67
2019-02-02T04:34:59.028Z,53.05
2019-02-02T04:37:26.656Z,53.45
2019-02-02T04:39:54.291Z,49.63
2019-02-02T04:42:22.050Z,52.20
2019-02-02T04:44:49.711Z,54.85
2019-02-02T04:47:17.360Z,52.80
2019-02-02T04:49:45.049Z,57.25
2019-02-02T04:52:12.770Z,52.90
2019-02-02T04:54:40.417Z,55.30
2019-02-02T04:57:08.059Z,59.65
2019-02-02T04:59:35.732Z,55.58
2019-02-02T05:02:03.485Z,51.00
2019-02-02T05:04:31.110Z,53.30
2019-02-02T05:06:58.797Z,59.15
2019-02-02T05:09:26.401Z,54.35
2019-02-02T05:11:54.172Z,55.60
2019-02-02T05:14:21.806Z,54.45
2019-02-02T05:16:49.416Z,54.18
2019-02-02T05:19:17.031Z,56.33
2019-02-02T05:21:44.694Z,55.08
2019-02-02T05:24:12.338Z,55.90
2019-02-02T05:26:39.963Z,55.05
2019-02-02T05:29:07.647Z,55.60
2019-02-02T05:31:35.275Z,57.08
2019-02-02T05:34:03.551Z,53.78
2019-02-02T05:36:31.212Z,52.00
2019-02-02T05:38:58.876Z,55.43
2019-02-02T05:41:26.550Z,50.63
2019-02-02T05:43:54.167Z,56.10
2019-02-02T05:46:21.784Z,56.33
2019-02-02T05:48:49.593Z,52.38
2019-02-02T05:51:17.220Z,50.88
2019-02-02T05:53:44.851Z,49.35
2019-02-02T05:56:12.475Z,51.45
2019-02-02T05:58:40.150Z,54.30
2019-02-02T06:01:11.704Z,52.98
2019-02-02T06:03:39.353Z,57.48
2019-02-02T06:06:07.051Z,54.18
2019-02-02T06:08:34.713Z,50.58
2019-02-02T06:11:02.354Z,48.00
2019-02-02T06:13:29.998Z,52.95
2019-02-02T06:15:57.623Z,52.65
2019-02-02T06:18:25.302Z,54.93
2019-02-02T06:20:52.940Z,51.58
2019-02-02T06:23:20.603Z,54.30
2019-02-02T06:25:48.259Z,54.67
2019-02-02T06:28:15.940Z,51.60
2019-02-02T06:30:43.598Z,50.45
2019-02-02T06:33:11.324Z,51.42
2019-02-02T06:35:38.975Z,48.40
2019-02-02T06:38:06.611Z,58.33
2019-02-02T06:40:34.255Z,53.90
2019-02-02T06:43:03.359Z,53.90
2019-02-02T06:45:33.007Z,52.40
2019-02-02T06:48:00.665Z,52.03
2019-02-02T06:50:28.336Z,51.92
2019-02-02T06:52:56.246Z,53.52
2019-02-02T06:55:24.044Z,49.93
2019-02-02T06:57:51.681Z,51.68
2019-02-02T07:00:20.646Z,49.53
2019-02-02T07:02:48.426Z,47.90
2019-02-02T07:05:17.278Z,54.75
2019-02-02T07:07:44.952Z,50.05
2019-02-02T07:10:18.196Z,54.35
2019-02-02T07:12:46.000Z,52.88
2019-02-02T07:15:14.179Z,54.25
2019-02-02T07:17:41.879Z,54.50
2019-02-02T07:20:10.867Z,57.55
2019-02-02T07:22:38.584Z,51.70
2019-02-02T07:25:07.292Z,49.70
2019-02-02T07:27:36.219Z,54.75
2019-02-02T07:30:06.514Z,53.40
2019-02-02T07:32:34.370Z,55.98
2019-02-02T07:35:02.289Z,52.65
2019-02-02T07:37:30.025Z,53.42
2019-02-02T07:39:58.092Z,59.80
2019-02-02T07:42:25.849Z,55.83
2019-02-02T07:44:53.615Z,56.40
2019-02-02T07:47:21.571Z,53.48
2019-02-02T07:49:49.846Z,51.80
2019-02-02T07:52:17.697Z,53.52
2019-02-02T07:54:45.563Z,51.70
2019-02-02T07:57:13.337Z,56.98
2019-02-02T07:59:41.215Z,59.23
2019-02-02T08:02:09.048Z,56.10
2019-02-02T08:04:36.965Z,50.80
2019-02-02T08:07:05.081Z,51.60
2019-02-02T08:09:32.951Z,52.25
2019-02-02T08:12:00.817Z,55.17
2019-02-02T08:14:28.705Z,57.20
2019-02-02T08:16:56.574Z,55.50
2019-02-02T08:19:25.685Z,59.70
2019-02-02T08:21:53.709Z,53.85
2019-02-02T08:24:21.335Z,52.38
2019-02-02T08:26:50.089Z,55.65
2019-02-02T08:29:17.707Z,53.20
2019-02-02T08:31:45.410Z,54.38
2019-02-02T08:34:13.040Z,55.55
2019-02-02T08:36:40.707Z,53.28
2019-02-02T08:39:09.075Z,62.00
2019-02-02T08:41:36.727Z,61.13
2019-02-02T08:44:04.716Z,56.37
2019-02-02T08:46:32.357Z,58.13
2019-02-02T08:48:59.979Z,52.03
2019-02-02T08:51:27.660Z,61.08
2019-02-02T08:53:55.343Z,55.23
2019-02-02T08:56:23.005Z,57.17
2019-02-02T08:58:50.720Z,54.75
2019-02-02T09:01:18.356Z,56.88
2019-02-02T09:03:46.249Z,58.68
2019-02-02T09:06:14.090Z,55.63
2019-02-02T09:08:42.046Z,57.63
2019-02-02T09:11:09.664Z,53.02
2019-02-02T09:13:37.552Z,53.53
2019-02-02T09:16:05.392Z,55.23
2019-02-02T09:18:33.245Z,53.90
2019-02-02T09:21:01.104Z,60.63
2019-02-02T09:23:28.920Z,51.83
2019-02-02T09:25:56.717Z,51.83
2019-02-02T09:28:24.572Z,49.93
2019-02-02T09:30:52.417Z,57.40
2019-02-02T09:33:20.284Z,55.37
2019-02-02T09:35:48.098Z,59.08
2019-02-02T09:38:15.993Z,54.80
2019-02-02T09:40:43.900Z,53.87
2019-02-02T09:43:11.869Z,54.65
2019-02-02T09:45:40.729Z,56.77
2019-02-02T09:48:09.627Z,61.63
2019-02-02T09:50:37.545Z,50.93
2019-02-02T09:53:05.425Z,58.77
2019-02-02T09:55:33.079Z,53.90
2019-02-02T09:58:03.282Z,58.08
2019-02-02T10:00:31.681Z,60.73
2019-02-02T10:02:59.544Z,62.15
2019-02-02T10:05:27.556Z,60.45
2019-02-02T10:07:55.347Z,59.83
2019-02-02T10:10:24.743Z,54.37
2019-02-02T10:12:52.409Z,59.53
2019-02-02T10:15:20.061Z,61.08
2019-02-02T10:17:49.838Z,51.07
2019-02-02T10:20:19.294Z,55.60
2019-02-02T10:22:47.027Z,58.70
2019-02-02T10:25:17.515Z,57.20
2019-02-02T10:27:45.142Z,55.37
2019-02-02T10:30:19.126Z,58.63
2019-02-02T10:32:46.775Z,56.13
2019-02-02T10:35:14.469Z,55.47
2019-02-02T10:37:42.129Z,54.53
2019-02-02T10:40:09.821Z,53.53
2019-02-02T10:42:37.474Z,54.17
2019-02-02T10:45:06.587Z,58.77
2019-02-02T10:47:34.203Z,53.47
2019-02-02T10:50:01.828Z,58.10
2019-02-02T10:52:29.545Z,61.00
2019-02-02T10:54:57.240Z,61.23
2019-02-02T10:57:24.828Z,65.63
2019-02-02T10:59:52.592Z,61.10
2019-02-02T11:02:20.235Z,58.43
2019-02-02T11:04:47.899Z,64.63
2019-02-02T11:07:15.669Z,65.23
2019-02-02T11:09:43.363Z,59.40
2019-02-02T11:12:11.075Z,57.63
2019-02-02T11:14:38.879Z,58.07
2019-02-02T11:17:06.593Z,58.10
2019-02-02T11:19:34.282Z,63.83
2019-02-02T11:22:01.952Z,60.00
2019-02-02T11:24:32.688Z,62.87
2019-02-02T11:27:00.393Z,59.47
2019-02-02T11:29:28.149Z,61.43
2019-02-02T11:32:02.503Z,65.83
2019-02-02T11:34:25.277Z,61.37
2019-02-02T11:36:52.991Z,62.90
2019-02-02T11:39:20.658Z,66.67
2019-02-02T11:41:48.404Z,61.53
2019-02-02T11:44:16.107Z,58.73
2019-02-02T11:46:43.771Z,68.53
2019-02-02T11:49:11.407Z,68.67
2019-02-02T11:51:39.059Z,70.73
2019-02-02T11:54:06.700Z,68.93
2019-02-02T11:56:34.340Z,66.80
2019-02-02T11:59:01.990Z,71.23
2019-02-02T12:01:29.631Z,71.47
2019-02-02T12:03:57.321Z,68.53
2019-02-02T12:06:24.988Z,67.27
2019-02-02T12:08:52.626Z,72.27
2019-02-02T12:11:20.286Z,71.37
2019-02-02T12:13:47.953Z,66.80
2019-02-02T12:16:15.572Z,68.70
2019-02-02T12:18:43.243Z,72.53
2019-02-02T12:21:10.891Z,73.47
2019-02-02T12:23:38.535Z,72.13
2019-02-02T12:26:06.227Z,70.33
2019-02-02T12:28:33.865Z,79.00
2019-02-02T12:31:01.514Z,74.57
2019-02-02T12:33:29.316Z,81.10
2019-02-02T12:35:57.098Z,75.07
2019-02-02T12:38:24.720Z,71.97
2019-02-02T12:40:52.427Z,71.07
2019-02-02T12:43:20.043Z,69.70
2019-02-02T12:45:52.558Z,73.97
2019-02-02T12:48:20.195Z,74.27
2019-02-02T12:50:47.887Z,72.67
2019-02-02T12:53:15.628Z,72.33
2019-02-02T12:55:43.294Z,78.17
2019-02-02T12:58:10.980Z,61.73
2019-02-02T13:00:38.636Z,71.50
2019-02-02T13:03:06.755Z,71.17
2019-02-02T13:05:34.417Z,78.53
2019-02-02T13:08:04.997Z,71.67
2019-02-02T13:10:31.467Z,78.97
2019-02-02T13:12:59.116Z,80.77
2019-02-02T13:15:26.728Z,75.13
2019-02-02T13:17:54.547Z,75.17
2019-02-02T13:20:22.191Z,76.53
2019-02-02T13:22:49.806Z,75.23
2019-02-02T13:25:18.940Z,77.83
2019-02-02T13:27:46.574Z,77.53
2019-02-02T13:30:17.385Z,69.67
2019-02-02T13:32:50.018Z,71.63
2019-02-02T13:35:14.642Z,73.63
2019-02-02T13:37:42.308Z,72.97
2019-02-02T13:40:12.667Z,69.63
2019-02-02T13:42:40.339Z,79.80
2019-02-02T13:45:08.724Z,77.70
2019-02-02T13:47:36.351Z,87.53
2019-02-02T13:50:06.346Z,74.60
2019-02-02T13:52:34.008Z,74.80
2019-02-02T13:55:01.665Z,79.57
2019-02-02T13:57:29.300Z,73.87
2019-02-02T13:59:57.046Z,77.53
2019-02-02T14:02:25.672Z,76.70
2019-02-02T14:04:53.716Z,72.77
2019-02-02T14:07:21.896Z,73.47
2019-02-02T14:09:49.536Z,77.30
2019-02-02T14:12:17.364Z,73.87
2019-02-02T14:14:45.135Z,75.13
2019-02-02T14:17:12.737Z,77.03
2019-02-02T14:19:42.052Z,79.63
2019-02-02T14:22:09.699Z,83.47
2019-02-02T14:24:37.744Z,76.63
2019-02-02T14:27:06.608Z,80.93
2019-02-02T14:29:34.579Z,73.93
2019-02-02T14:32:02.817Z,77.00
2019-02-02T14:34:39.993Z,77.93
2019-02-02T14:37:01.613Z,81.07
2019-02-02T14:39:29.385Z,75.63
2019-02-02T14:41:57.331Z,78.77
2019-02-02T14:44:25.551Z,78.67
2019-02-02T14:46:54.179Z,80.07
2019-02-02T14:49:23.027Z,82.43
2019-02-02T14:51:50.651Z,79.30
2019-02-02T14:54:18.308Z,81.57
2019-02-02T14:56:48.180Z,80.57
2019-02-02T14:59:15.890Z,80.93
2019-02-02T15:01:44.573Z,84.00
2019-02-02T15:04:12.268Z,83.03
2019-02-02T15:06:41.326Z,82.47
2019-02-02T15:09:09.480Z,81.10
2019-02-02T15:11:38.640Z,82.83
2019-02-02T15:14:07.842Z,88.50
2019-02-02T15:16:35.621Z,83.23
2019-02-02T15:19:05.346Z,87.33
2019-02-02T15:21:33.019Z,93.60
2019-02-02T15:24:00.638Z,87.87
2019-02-02T15:26:29.385Z,97.27
2019-02-02T15:28:56.996Z,84.73
2019-02-02T15:31:24.625Z,89.53
2019-02-02T15:33:52.288Z,91.93
2019-02-02T15:36:20.051Z,90.47
2019-02-02T15:38:47.701Z,93.33
2019-02-02T15:41:15.345Z,88.47
2019-02-02T15:43:43.049Z,98.23
2019-02-02T15:46:10.703Z,88.97
2019-02-02T15:48:38.356Z,94.47
2019-02-02T15:51:06.035Z,91.10
2019-02-02T15:53:33.615Z,97.60
2019-02-02T15:56:01.287Z,89.80
2019-02-02T15:58:28.957Z,103.20
2019-02-02T16:00:56.584Z,104.10
2019-02-02T16:03:24.318Z,102.43
2019-02-02T16:05:51.996Z,98.20
2019-02-02T16:08:19.673Z,108.97
2019-02-02T16:10:47.263Z,99.47
2019-02-02T16:13:14.887Z,102.10
2019-02-02T16:15:42.512Z,102.07
2019-02-02T16:18:10.164Z,99.93
2019-02-02T16:20:42.599Z,100.57
2019-02-02T16:23:11.319Z,101.57
2019-02-02T16:25:38.971Z,98.77
2019-02-02T16:28:06.804Z,100.67
2019-02-02T16:30:35.456Z,95.90
2019-02-02T16:33:03.391Z,92.10
2019-02-02T16:35:31.076Z,100.30
2019-02-02T16:38:00.750Z,102.93
2019-02-02T16:40:31.911Z,99.57
2019-02-02T16:42:59.636Z,105.50
2019-02-02T16:45:29.240Z,98.70
2019-02-02T16:47:57.226Z,100.63
2019-02-02T16:50:25.961Z,104.37
2019-02-02T16:52:53.876Z,87.53
2019-02-02T16:55:21.603Z,100.43
2019-02-02T16:57:49.216Z,100.30
2019-02-02T17:00:26.895Z,103.77
2019-02-02T17:02:54.881Z,96.70
2019-02-02T17:05:22.551Z,103.63
2019-02-02T17:07:50.160Z,98.87
2019-02-02T17:10:22.639Z,97.93
2019-02-02T17:12:50.265Z,103.63
2019-02-02T17:15:18.118Z,105.50
2019-02-02T17:17:45.736Z,104.93
2019-02-02T17:20:15.668Z,111.47
2019-02-02T17:22:43.370Z,104.37
2019-02-02T17:25:13.369Z,104.37
2019-02-02T17:27:41.017Z,102.23
2019-02-02T17:30:10.967Z,108.23
2019-02-02T17:32:38.636Z,114.37
2019-02-02T17:35:07.314Z,112.37
2019-02-02T17:37:35.018Z,109.10
2019-02-02T17:40:03.555Z,104.27
2019-02-02T17:42:31.236Z,113.50
2019-02-02T17:44:59.992Z,116.93
2019-02-02T17:47:27.699Z,114.27
2019-02-02T17:49:55.541Z,115.87
2019-02-02T17:52:23.362Z,114.90
2019-02-02T17:54:51.287Z,105.97
2019-02-02T17:57:19.149Z,110.50
2019-02-02T17:59:46.921Z,104.33
2019-02-02T18:02:14.652Z,111.50
2019-02-02T18:04:43.283Z,96.90
2019-02-02T18:07:11.188Z,113.53
2019-02-02T18:09:39.104Z,102.47
2019-02-02T18:12:06.947Z,105.07
2019-02-02T18:14:34.753Z,99.73
2019-02-02T18:17:02.547Z,99.40
2019-02-02T18:19:30.319Z,108.67
2019-02-02T18:21:58.161Z,100.30
2019-02-02T18:24:25.943Z,99.97
2019-02-02T18:26:53.724Z,102.93
2019-02-02T18:29:21.619Z,108.00
2019-02-02T18:31:49.506Z,113.10
2019-02-02T18:34:17.292Z,101.77
2019-02-02T18:36:45.199Z,108.70
2019-02-02T18:39:13.028Z,102.17
2019-02-02T18:41:40.842Z,102.10
2019-02-02T18:44:08.675Z,107.73
2019-02-02T18:46:36.492Z,99.87
2019-02-02T18:49:04.567Z,109.47
2019-02-02T18:51:32.319Z,107.70
2019-02-02T18:54:00.312Z,105.93
2019-02-02T18:56:28.286Z,110.90
2019-02-02T18:58:56.118Z,101.87
2019-02-02T19:01:23.991Z,97.50
2019-02-02T19:03:51.983Z,109.13
2019-02-02T19:06:23.446Z,96.93
2019-02-02T19:08:51.876Z,97.47
2019-02-02T19:11:19.805Z,98.73
2019-02-02T19:13:47.502Z,96.60
2019-02-02T19:16:15.524Z,101.70
2019-02-02T19:18:43.434Z,97.57
2019-02-02T19:21:11.805Z,100.17
2019-02-02T19:23:42.825Z,96.40
2019-02-02T19:26:10.536Z,108.90
2019-02-02T19:28:40.259Z,101.63
2019-02-02T19:31:08.750Z,110.80
2019-02-02T19:33:36.631Z,108.23
2019-02-02T19:36:04.975Z,103.30
2019-02-02T19:38:32.714Z,99.97
2019-02-02T19:41:00.486Z,103.23
2019-02-02T19:43:28.999Z,108.30
2019-02-02T19:45:59.179Z,108.13
2019-02-02T19:48:26.890Z,115.53
2019-02-02T19:50:55.741Z,103.63
2019-02-02T19:53:23.760Z,112.27
2019-02-02T19:55:51.483Z,106.63
2019-02-02T19:58:19.313Z,115.50
2019-02-02T20:00:47.162Z,116.17
2019-02-02T20:03:14.872Z,115.27
2019-02-02T20:05:42.619Z,120.53
2019-02-02T20:08:10.299Z,113.13
2019-02-02T20:10:38.036Z,127.43
2019-02-02T20:13:05.904Z,117.60
2019-02-02T20:15:33.581Z,111.93
2019-02-02T20:18:09.377Z,125.17
2019-02-02T20:20:31.311Z,113.07
2019-02-02T20:22:58.924Z,112.97
2019-02-02T20:25:26.732Z,122.70
2019-02-02T20:27:54.562Z,113.37
2019-02-02T20:30:24.409Z,107.20
2019-02-02T20:32:52.098Z,115.07
2019-02-02T20:35:19.763Z,101.23
2019-02-02T20:37:47.518Z,121.20
2019-02-02T20:40:18.234Z,129.47
2019-02-02T20:42:45.972Z,119.60
2019-02-02T20:45:16.040Z,112.90
2019-02-02T20:47:43.910Z,122.30
2019-02-02T20:50:13.789Z,123.33
2019-02-02T20:52:47.627Z,117.77
2019-02-02T20:55:17.764Z,120.37
2019-02-02T20:57:45.984Z,128.70
2019-02-02T21:00:18.758Z,117.10
2019-02-02T21:02:46.400Z,116.97
2019-02-02T21:05:14.029Z,123.07
2019-02-02T21:07:41.698Z,120.27
2019-02-02T21:10:12.053Z,122.87
2019-02-02T21:12:39.718Z,120.63
2019-02-02T21:15:08.967Z,128.70
2019-02-02T21:17:36.640Z,129.80
2019-02-02T21:20:06.116Z,128.77
2019-02-02T21:22:33.791Z,114.43
2019-02-02T21:25:01.450Z,119.60
2019-02-02T21:27:29.078Z,133.57
2019-02-02T21:29:56.776Z,136.57
2019-02-02T21:32:24.412Z,134.70
2019-02-02T21:34:52.003Z,186.23
2019-02-02T21:37:19.674Z,126.23
2019-02-02T21:39:47.371Z,130.70
2019-02-02T21:42:15.161Z,122.73
2019-02-02T21:44:43.496Z,129.07
2019-02-02T21:47:11.212Z,147.27
2019-02-02T21:49:38.875Z,134.33
2019-02-02T21:52:06.676Z,131.83
2019-02-02T21:54:34.300Z,127.60
2019-02-02T21:57:02.200Z,113.20
2019-02-02T21:59:30.047Z,106.70
2019-02-02T22:01:57.704Z,119.07
2019-02-02T22:04:25.380Z,112.00
2019-02-02T22:06:53.023Z,119.27
2019-02-02T22:09:20.716Z,128.23
2019-02-02T22:11:48.526Z,113.65
2019-02-02T22:14:16.128Z,112.20
2019-02-02T22:16:43.889Z,117.23
2019-02-02T22:19:11.543Z,110.90
2019-02-02T22:21:39.159Z,111.30
2019-02-02T22:24:06.788Z,110.93
2019-02-02T22:26:34.640Z,112.90
2019-02-02T22:29:02.220Z,124.03
2019-02-02T22:31:29.869Z,109.93
2019-02-02T22:33:57.539Z,113.70
2019-02-02T22:36:27.648Z,113.53
2019-02-02T22:38:54.690Z,113.23
2019-02-02T22:41:22.584Z,113.93
2019-02-02T22:43:50.254Z,109.20
2019-02-02T22:46:17.889Z,108.23
2019-02-02T22:48:45.503Z,102.97
2019-02-02T22:51:13.201Z,110.50
2019-02-02T22:53:40.830Z,113.20
2019-02-02T22:56:08.782Z,117.97
2019-02-02T22:58:36.439Z,128.27
2019-02-02T23:01:15.115Z,128.60
2019-02-02T23:03:49.407Z,109.90
2019-02-02T23:06:54.423Z,107.37
2019-02-02T23:10:17.819Z,114.37
2019-02-02T23:13:18.078Z,112.53
2019-02-02T23:16:06.551Z,127.23
2019-02-02T23:18:34.183Z,129.90
2019-02-02T23:21:01.804Z,123.33
2019-02-02T23:23:29.519Z,139.83
2019-02-02T23:25:57.162Z,121.50
2019-02-02T23:28:24.804Z,149.13
2019-02-02T23:30:55.349Z,132.33
2019-02-02T23:33:22.058Z,154.90
2019-02-02T23:35:49.770Z,144.23
2019-02-02T23:38:17.414Z,143.77
2019-02-02T23:40:45.245Z,129.07
2019-02-02T23:43:15.393Z,123.87
2019-02-02T23:45:42.363Z,149.60
2019-02-02T23:48:10.044Z,132.13
2019-02-02T23:50:37.688Z,142.67
2019-02-02T23:53:05.327Z,135.00
2019-02-02T23:55:33.124Z,161.17
2019-02-02T23:58:00.865Z,117.00
